sensor_id;sensor_type;location;lat;lon;timestamp;pressure;altitude;pressure_sealevel;temperature;humidity
76478;BME280;65309;49.790;18.972;2023-07-24T00:04:47;59688.13;;;-145.46;47.65
76478;BME280;65309;49.790;18.972;2023-07-24T00:09:50;59683.91;;;-145.46;48.24
76478;BME280;65309;49.790;18.972;2023-07-24T00:14:53;59639.78;;;-145.46;48.97
76478;BME280;65309;49.790;18.972;2023-07-24T00:19:55;59681.81;;;-145.46;49.21
76478;BME280;65309;49.790;18.972;2023-07-24T00:24:58;59650.28;;;-145.46;48.69
76478;BME280;65309;49.790;18.972;2023-07-24T00:30:01;59707.03;;;-145.46;49.53
76478;BME280;65309;49.790;18.972;2023-07-24T00:35:03;59673.41;;;-145.46;49.93
76478;BME280;65309;49.790;18.972;2023-07-24T00:40:08;59715.44;;;-145.46;51.09
76478;BME280;65309;49.790;18.972;2023-07-24T00:45:10;59671.31;;;-145.46;51.71
76478;BME280;65309;49.790;18.972;2023-07-24T00:50:12;59683.91;;;-145.46;51.94
76478;BME280;65309;49.790;18.972;2023-07-24T00:55:16;59694.44;;;-145.46;52.02
76478;BME280;65309;49.790;18.972;2023-07-24T01:00:18;59654.50;;;-145.46;52.10
76478;BME280;65309;49.790;18.972;2023-07-24T01:05:22;59719.66;;;-145.46;51.88
76478;BME280;65309;49.790;18.972;2023-07-24T01:10:26;59709.16;;;-145.46;52.05
76478;BME280;65309;49.790;18.972;2023-07-24T01:15:32;59698.63;;;-145.46;52.09
76478;BME280;65309;49.790;18.972;2023-07-24T01:20:37;59679.72;;;-145.46;52.49
76478;BME280;65309;49.790;18.972;2023-07-24T01:25:49;59673.41;;;-145.46;52.64
76478;BME280;65309;49.790;18.972;2023-07-24T01:30:53;59694.44;;;-145.46;52.71
76478;BME280;65309;49.790;18.972;2023-07-24T01:35:57;59715.44;;;-145.46;53.37
76478;BME280;65309;49.790;18.972;2023-07-24T01:41:02;59700.75;;;-145.46;53.78
76478;BME280;65309;49.790;18.972;2023-07-24T01:46:04;59692.31;;;-145.46;54.29
76478;BME280;65309;49.790;18.972;2023-07-24T01:51:06;59738.56;;;-145.46;54.68
76478;BME280;65309;49.790;18.972;2023-07-24T01:56:10;59713.34;;;-145.46;55.14
76478;BME280;65309;49.790;18.972;2023-07-24T02:01:12;59721.75;;;-145.46;54.81
76478;BME280;65309;49.790;18.972;2023-07-24T02:06:14;59694.44;;;-145.46;55.52
76478;BME280;65309;49.790;18.972;2023-07-24T02:11:17;59711.25;;;-145.46;55.63
76478;BME280;65309;49.790;18.972;2023-07-24T02:16:19;59669.22;;;-145.46;56.32
76478;BME280;65309;49.790;18.972;2023-07-24T02:21:22;59734.38;;;-145.46;56.25
76478;BME280;65309;49.790;18.972;2023-07-24T02:26:25;59721.75;;;-145.46;56.71
76478;BME280;65309;49.790;18.972;2023-07-24T02:31:27;59700.75;;;-145.46;57.83
76478;BME280;65309;49.790;18.972;2023-07-24T02:36:29;59696.53;;;-145.46;58.09
76478;BME280;65309;49.790;18.972;2023-07-24T02:41:33;59692.31;;;-145.46;59.32
76478;BME280;65309;49.790;18.972;2023-07-24T02:46:35;59711.25;;;-145.46;58.26
76478;BME280;65309;49.790;18.972;2023-07-24T02:51:37;59709.16;;;-145.46;58.54
76478;BME280;65309;49.790;18.972;2023-07-24T02:56:41;59704.94;;;-145.46;59.34
76478;BME280;65309;49.790;18.972;2023-07-24T03:01:43;59717.56;;;-145.46;59.62
76478;BME280;65309;49.790;18.972;2023-07-24T03:06:45;59725.97;;;-145.46;60.60
76478;BME280;65309;49.790;18.972;2023-07-24T03:11:48;59742.78;;;-145.46;60.42
76478;BME280;65309;49.790;18.972;2023-07-24T03:16:53;59698.63;;;-145.46;60.59
76478;BME280;65309;49.790;18.972;2023-07-24T03:21:55;59744.88;;;-145.46;60.57
76478;BME280;65309;49.790;18.972;2023-07-24T03:26:58;59704.94;;;-145.46;60.88
76478;BME280;65309;49.790;18.972;2023-07-24T03:32:02;59700.75;;;-145.46;60.78
76478;BME280;65309;49.790;18.972;2023-07-24T03:37:04;59717.56;;;-145.46;61.09
76478;BME280;65309;49.790;18.972;2023-07-24T03:42:09;59723.84;;;-145.46;61.15
76478;BME280;65309;49.790;18.972;2023-07-24T03:47:11;59728.06;;;-145.46;60.11
76478;BME280;65309;49.790;18.972;2023-07-24T03:52:13;59677.63;;;-145.46;58.61
76478;BME280;65309;49.790;18.972;2023-07-24T03:57:17;59692.31;;;-145.46;58.02
76478;BME280;65309;49.790;18.972;2023-07-24T04:02:19;59681.81;;;-145.46;58.99
76478;BME280;65309;49.790;18.972;2023-07-24T04:07:21;59717.56;;;-145.46;59.63
76478;BME280;65309;49.790;18.972;2023-07-24T04:12:25;59675.50;;;-145.46;60.45
76478;BME280;65309;49.790;18.972;2023-07-24T04:17:27;59746.97;;;-145.46;61.11
76478;BME280;65309;49.790;18.972;2023-07-24T04:22:29;59681.81;;;-145.46;61.00
76478;BME280;65309;49.790;18.972;2023-07-24T04:27:32;59740.69;;;-145.46;61.14
76478;BME280;65309;49.790;18.972;2023-07-24T04:32:34;59736.47;;;-145.46;61.21
76478;BME280;65309;49.790;18.972;2023-07-24T04:37:36;59713.34;;;-145.46;61.23
76478;BME280;65309;49.790;18.972;2023-07-24T04:42:40;59709.16;;;-145.46;61.47
76478;BME280;65309;49.790;18.972;2023-07-24T04:47:42;59740.69;;;-145.46;61.16
76478;BME280;65309;49.790;18.972;2023-07-24T04:52:44;59713.34;;;-145.46;61.61
76478;BME280;65309;49.790;18.972;2023-07-24T04:57:47;59719.66;;;-145.46;60.37
76478;BME280;65309;49.790;18.972;2023-07-24T05:02:49;59683.91;;;-145.46;60.73
76478;BME280;65309;49.790;18.972;2023-07-24T05:07:51;59715.44;;;-145.46;60.58
76478;BME280;65309;49.790;18.972;2023-07-24T05:12:55;59725.97;;;-145.46;60.70
76478;BME280;65309;49.790;18.972;2023-07-24T05:17:58;59675.50;;;-145.46;60.74
76478;BME280;65309;49.790;18.972;2023-07-24T05:23:00;59725.97;;;-145.46;60.38
76478;BME280;65309;49.790;18.972;2023-07-24T05:28:04;59702.84;;;-145.46;59.54
76478;BME280;65309;49.790;18.972;2023-07-24T05:33:06;59709.16;;;-145.46;59.27
76478;BME280;65309;49.790;18.972;2023-07-24T05:38:08;59692.31;;;-145.46;59.16
76478;BME280;65309;49.790;18.972;2023-07-24T05:43:12;59717.56;;;-145.46;57.77
76478;BME280;65309;49.790;18.972;2023-07-24T05:48:14;59694.44;;;-145.46;57.17
76478;BME280;65309;49.790;18.972;2023-07-24T05:53:16;59688.13;;;-145.46;57.58
76478;BME280;65309;49.790;18.972;2023-07-24T05:58:20;59698.63;;;-145.46;56.81
76478;BME280;65309;49.790;18.972;2023-07-24T06:03:22;59709.16;;;-145.46;57.11
76478;BME280;65309;49.790;18.972;2023-07-24T06:08:25;59683.91;;;-145.46;56.00
76478;BME280;65309;49.790;18.972;2023-07-24T06:13:28;59709.16;;;-145.46;55.83
76478;BME280;65309;49.790;18.972;2023-07-24T06:18:30;59679.72;;;-145.46;54.97
76478;BME280;65309;49.790;18.972;2023-07-24T06:23:32;59696.53;;;-145.46;55.26
76478;BME280;65309;49.790;18.972;2023-07-24T06:28:36;59688.13;;;-145.46;54.55
76478;BME280;65309;49.790;18.972;2023-07-24T06:33:38;59681.81;;;-145.46;55.21
76478;BME280;65309;49.790;18.972;2023-07-24T06:38:40;59700.75;;;-145.46;54.83
76478;BME280;65309;49.790;18.972;2023-07-24T06:43:45;59709.16;;;-145.46;53.86
76478;BME280;65309;49.790;18.972;2023-07-24T06:48:47;59679.72;;;-145.46;53.95
76478;BME280;65309;49.790;18.972;2023-07-24T06:53:49;59675.50;;;-145.46;54.10
76478;BME280;65309;49.790;18.972;2023-07-24T06:58:53;59658.69;;;-145.46;52.66
76478;BME280;65309;49.790;18.972;2023-07-24T07:03:55;59654.50;;;-145.46;51.97
76478;BME280;65309;49.790;18.972;2023-07-24T07:08:57;59665.00;;;-145.46;51.40
76478;BME280;65309;49.790;18.972;2023-07-24T07:14:00;59654.50;;;-145.46;51.08
76478;BME280;65309;49.790;18.972;2023-07-24T07:19:03;59643.97;;;-145.46;49.12
76478;BME280;65309;49.790;18.972;2023-07-24T07:24:05;59662.91;;;-145.46;48.96
76478;BME280;65309;49.790;18.972;2023-07-24T07:29:08;59675.50;;;-145.46;49.27
76478;BME280;65309;49.790;18.972;2023-07-24T07:34:11;59671.31;;;-145.46;46.00
76478;BME280;65309;49.790;18.972;2023-07-24T07:39:13;59637.69;;;-145.46;46.95
76478;BME280;65309;49.790;18.972;2023-07-24T07:44:16;59587.22;;;-145.46;45.35
76478;BME280;65309;49.790;18.972;2023-07-24T07:49:18;59665.00;;;-145.46;45.77
76478;BME280;65309;49.790;18.972;2023-07-24T07:54:21;59641.88;;;-145.46;45.55
76478;BME280;65309;49.790;18.972;2023-07-24T07:59:24;59620.88;;;-145.46;42.96
76478;BME280;65309;49.790;18.972;2023-07-24T08:04:26;59650.28;;;-145.46;44.49
76478;BME280;65309;49.790;18.972;2023-07-24T08:09:28;59591.44;;;-145.46;42.16
76478;BME280;65309;49.790;18.972;2023-07-24T08:14:31;59616.66;;;-145.46;40.99
76478;BME280;65309;49.790;18.972;2023-07-24T08:19:34;59620.88;;;-145.46;39.64
76478;BME280;65309;49.790;18.972;2023-07-24T08:24:36;59578.81;;;-145.46;37.88
76478;BME280;65309;49.790;18.972;2023-07-24T08:29:39;59625.06;;;-145.46;37.25
76478;BME280;65309;49.790;18.972;2023-07-24T08:34:42;59625.06;;;-145.46;36.93
76478;BME280;65309;49.790;18.972;2023-07-24T08:39:44;59620.88;;;-145.46;37.86
76478;BME280;65309;49.790;18.972;2023-07-24T08:44:47;59608.25;;;-145.46;36.16
76478;BME280;65309;49.790;18.972;2023-07-24T08:49:50;59587.22;;;-145.46;34.50
76478;BME280;65309;49.790;18.972;2023-07-24T08:54:54;59566.22;;;-145.46;35.36
76478;BME280;65309;49.790;18.972;2023-07-24T09:00:02;59576.72;;;-145.46;33.39
76478;BME280;65309;49.790;18.972;2023-07-24T09:05:07;59608.25;;;-145.46;32.83
76478;BME280;65309;49.790;18.972;2023-07-24T09:10:09;59593.53;;;-145.46;34.10
76478;BME280;65309;49.790;18.972;2023-07-24T09:15:14;59583.03;;;-145.46;32.46
76478;BME280;65309;49.790;18.972;2023-07-24T09:20:16;59578.81;;;-145.46;32.90
76478;BME280;65309;49.790;18.972;2023-07-24T09:25:29;59612.44;;;-145.46;32.90
76478;BME280;65309;49.790;18.972;2023-07-24T09:30:33;59604.03;;;-145.46;33.59
76478;BME280;65309;49.790;18.972;2023-07-24T09:35:35;59641.88;;;-145.46;33.34
76478;BME280;65309;49.790;18.972;2023-07-24T09:40:38;59625.06;;;-145.46;34.85
76478;BME280;65309;49.790;18.972;2023-07-24T09:45:43;59625.06;;;-145.46;35.94
76478;BME280;65309;49.790;18.972;2023-07-24T09:50:48;59648.19;;;-145.46;36.87
76478;BME280;65309;49.790;18.972;2023-07-24T09:55:56;59654.50;;;-145.46;37.23
76478;BME280;65309;49.790;18.972;2023-07-24T10:01:02;59612.44;;;-145.46;37.63
76478;BME280;65309;49.790;18.972;2023-07-24T10:06:05;59620.88;;;-145.46;35.88
76478;BME280;65309;49.790;18.972;2023-07-24T10:11:12;59641.88;;;-145.46;35.96
76478;BME280;65309;49.790;18.972;2023-07-24T10:16:16;59629.28;;;-145.46;38.01
76478;BME280;65309;49.790;18.972;2023-07-24T10:21:26;59591.44;;;-145.46;36.40
76478;BME280;65309;49.790;18.972;2023-07-24T10:26:29;59629.28;;;-145.46;38.87
76478;BME280;65309;49.790;18.972;2023-07-24T10:31:34;59595.63;;;-145.46;34.86
76478;BME280;65309;49.790;18.972;2023-07-24T10:36:36;59618.75;;;-145.46;34.02
76478;BME280;65309;49.790;18.972;2023-07-24T10:41:40;59608.25;;;-145.46;35.66
76478;BME280;65309;49.790;18.972;2023-07-24T10:46:43;59625.06;;;-145.46;36.37
76478;BME280;65309;49.790;18.972;2023-07-24T10:51:45;59637.69;;;-145.46;36.98
76478;BME280;65309;49.790;18.972;2023-07-24T10:56:47;59557.81;;;-145.46;31.40
76478;BME280;65309;49.790;18.972;2023-07-24T11:01:54;59570.41;;;-145.46;33.06
76478;BME280;65309;49.790;18.972;2023-07-24T11:06:56;59587.22;;;-145.46;34.40
76478;BME280;65309;49.790;18.972;2023-07-24T11:11:59;59559.91;;;-145.46;36.11
76478;BME280;65309;49.790;18.972;2023-07-24T11:17:03;59589.34;;;-145.46;32.71
76478;BME280;65309;49.790;18.972;2023-07-24T11:22:06;59574.63;;;-145.46;32.78
76478;BME280;65309;49.790;18.972;2023-07-24T11:27:10;59528.38;;;-145.46;32.70
76478;BME280;65309;49.790;18.972;2023-07-24T11:32:18;59578.81;;;-145.46;33.92
76478;BME280;65309;49.790;18.972;2023-07-24T11:37:20;59595.63;;;-145.46;33.32
76478;BME280;65309;49.790;18.972;2023-07-24T11:42:24;59576.72;;;-145.46;36.32
76478;BME280;65309;49.790;18.972;2023-07-24T11:47:28;59618.75;;;-145.46;35.02
76478;BME280;65309;49.790;18.972;2023-07-24T11:52:38;59593.53;;;-145.46;34.30
76478;BME280;65309;49.790;18.972;2023-07-24T11:57:41;59593.53;;;-145.46;36.02
76478;BME280;65309;49.790;18.972;2023-07-24T12:02:44;59585.13;;;-145.46;37.14
76478;BME280;65309;49.790;18.972;2023-07-24T12:07:47;59591.44;;;-145.46;34.42
76478;BME280;65309;49.790;18.972;2023-07-24T12:12:49;59562.00;;;-145.46;35.66
76478;BME280;65309;49.790;18.972;2023-07-24T12:17:52;59585.13;;;-145.46;33.12
76478;BME280;65309;49.790;18.972;2023-07-24T12:22:54;59578.81;;;-145.46;34.45
76478;BME280;65309;49.790;18.972;2023-07-24T12:27:57;59587.22;;;-145.46;35.00
76478;BME280;65309;49.790;18.972;2023-07-24T12:33:00;59549.41;;;-145.46;34.69
76478;BME280;65309;49.790;18.972;2023-07-24T12:38:02;59553.59;;;-145.46;34.52
76478;BME280;65309;49.790;18.972;2023-07-24T12:43:04;59576.72;;;-145.46;34.67
76478;BME280;65309;49.790;18.972;2023-07-24T12:48:08;59566.22;;;-145.46;34.29
76478;BME280;65309;49.790;18.972;2023-07-24T12:53:10;59580.94;;;-145.46;35.49
76478;BME280;65309;49.790;18.972;2023-07-24T12:58:22;59551.50;;;-145.46;34.83
76478;BME280;65309;49.790;18.972;2023-07-24T13:03:26;59562.00;;;-145.46;35.96
76478;BME280;65309;49.790;18.972;2023-07-24T13:08:28;59574.63;;;-145.46;35.05
76478;BME280;65309;49.790;18.972;2023-07-24T13:13:30;59612.44;;;-145.46;35.32
76478;BME280;65309;49.790;18.972;2023-07-24T13:18:34;59568.31;;;-145.46;36.57
76478;BME280;65309;49.790;18.972;2023-07-24T13:23:36;59557.81;;;-145.46;35.57
76478;BME280;65309;49.790;18.972;2023-07-24T13:28:38;59572.50;;;-145.46;35.34
76478;BME280;65309;49.790;18.972;2023-07-24T13:33:42;59532.56;;;-145.46;35.47
76478;BME280;65309;49.790;18.972;2023-07-24T13:38:44;59562.00;;;-145.46;34.92
76478;BME280;65309;49.790;18.972;2023-07-24T13:43:47;59545.19;;;-145.46;34.79
76478;BME280;65309;49.790;18.972;2023-07-24T13:48:50;59541.00;;;-145.46;35.15
76478;BME280;65309;49.790;18.972;2023-07-24T13:53:52;59562.00;;;-145.46;33.29
76478;BME280;65309;49.790;18.972;2023-07-24T13:58:55;59547.28;;;-145.46;33.75
76478;BME280;65309;49.790;18.972;2023-07-24T14:03:59;59509.47;;;-145.46;34.65
76478;BME280;65309;49.790;18.972;2023-07-24T14:09:02;59541.00;;;-145.46;34.94
76478;BME280;65309;49.790;18.972;2023-07-24T14:14:05;59519.97;;;-145.46;33.42
76478;BME280;65309;49.790;18.972;2023-07-24T14:19:08;59541.00;;;-145.46;33.62
76478;BME280;65309;49.790;18.972;2023-07-24T14:24:10;59498.94;;;-145.46;32.83
76478;BME280;65309;49.790;18.972;2023-07-24T14:29:12;59549.41;;;-145.46;32.40
76478;BME280;65309;49.790;18.972;2023-07-24T14:34:16;59496.84;;;-145.46;31.12
76478;BME280;65309;49.790;18.972;2023-07-24T14:39:18;59543.09;;;-145.46;31.80
76478;BME280;65309;49.790;18.972;2023-07-24T14:44:20;59545.19;;;-145.46;31.41
76478;BME280;65309;49.790;18.972;2023-07-24T14:49:23;59503.16;;;-145.46;32.32
76478;BME280;65309;49.790;18.972;2023-07-24T14:54:25;59519.97;;;-145.46;33.62
76478;BME280;65309;49.790;18.972;2023-07-24T14:59:27;59557.81;;;-145.46;31.36
76478;BME280;65309;49.790;18.972;2023-07-24T15:04:31;59555.69;;;-145.46;32.66
76478;BME280;65309;49.790;18.972;2023-07-24T15:09:33;59538.88;;;-145.46;32.10
76478;BME280;65309;49.790;18.972;2023-07-24T15:14:36;59538.88;;;-145.46;32.44
76478;BME280;65309;49.790;18.972;2023-07-24T15:19:39;59528.38;;;-145.46;34.33
76478;BME280;65309;49.790;18.972;2023-07-24T15:24:41;59570.41;;;-145.46;32.75
76478;BME280;65309;49.790;18.972;2023-07-24T15:29:46;59591.44;;;-145.46;33.99
76478;BME280;65309;49.790;18.972;2023-07-24T15:34:50;59593.53;;;-145.46;34.61
76478;BME280;65309;49.790;18.972;2023-07-24T15:39:53;59618.75;;;-145.46;34.55
76478;BME280;65309;49.790;18.972;2023-07-24T15:44:55;59587.22;;;-145.46;34.96
76478;BME280;65309;49.790;18.972;2023-07-24T15:49:58;59610.34;;;-145.46;36.20
76478;BME280;65309;49.790;18.972;2023-07-24T15:55:03;59604.03;;;-145.46;35.91
76478;BME280;65309;49.790;18.972;2023-07-24T16:00:06;59625.06;;;-145.46;37.27
76478;BME280;65309;49.790;18.972;2023-07-24T16:05:18;59625.06;;;-145.46;36.96
76478;BME280;65309;49.790;18.972;2023-07-24T16:10:21;59646.09;;;-145.46;37.52
76478;BME280;65309;49.790;18.972;2023-07-24T16:15:23;59648.19;;;-145.46;38.24
76478;BME280;65309;49.790;18.972;2023-07-24T16:20:30;59622.97;;;-145.46;39.48
76478;BME280;65309;49.790;18.972;2023-07-24T16:25:33;59652.38;;;-145.46;41.07
76478;BME280;65309;49.790;18.972;2023-07-24T16:30:35;59631.38;;;-145.46;41.33
76478;BME280;65309;49.790;18.972;2023-07-24T16:35:39;59660.81;;;-145.46;44.35
76478;BME280;65309;49.790;18.972;2023-07-24T16:40:41;59650.28;;;-145.46;46.74
76478;BME280;65309;49.790;18.972;2023-07-24T16:45:43;59688.13;;;-145.46;50.22
76478;BME280;65309;49.790;18.972;2023-07-24T16:51:06;59673.41;;;-145.46;55.03
76478;BME280;65309;49.790;18.972;2023-07-24T16:56:09;59665.00;;;-145.46;57.47
76478;BME280;65309;49.790;18.972;2023-07-24T17:01:11;59698.63;;;-145.46;60.59
76478;BME280;65309;49.790;18.972;2023-07-24T17:06:14;59721.75;;;-145.46;63.37
76478;BME280;65309;49.790;18.972;2023-07-24T17:11:16;59690.22;;;-145.46;66.10
76478;BME280;65309;49.790;18.972;2023-07-24T17:16:18;59696.53;;;-145.46;68.68
76478;BME280;65309;49.790;18.972;2023-07-24T17:21:22;59692.31;;;-145.46;72.06
76478;BME280;65309;49.790;18.972;2023-07-24T17:26:24;59736.47;;;-145.46;77.54
76478;BME280;65309;49.790;18.972;2023-07-24T17:31:27;59763.78;;;-145.46;87.69
76478;BME280;65309;49.790;18.972;2023-07-24T17:36:31;59740.69;;;-145.46;88.70
76478;BME280;65309;49.790;18.972;2023-07-24T17:41:33;59738.56;;;-145.46;86.60
76478;BME280;65309;49.790;18.972;2023-07-24T17:46:35;59713.34;;;-145.46;87.02
76478;BME280;65309;49.790;18.972;2023-07-24T17:51:39;59751.19;;;-145.46;87.42
76478;BME280;65309;49.790;18.972;2023-07-24T17:56:41;59759.59;;;-145.46;88.00
76478;BME280;65309;49.790;18.972;2023-07-24T18:01:43;59753.28;;;-145.46;89.31
76478;BME280;65309;49.790;18.972;2023-07-24T18:06:47;59763.78;;;-145.46;90.72
76478;BME280;65309;49.790;18.972;2023-07-24T18:11:49;59746.97;;;-145.46;90.80
76478;BME280;65309;49.790;18.972;2023-07-24T18:16:51;59784.81;;;-145.46;90.96
76478;BME280;65309;49.790;18.972;2023-07-24T18:21:54;59776.41;;;-145.46;90.28
76478;BME280;65309;49.790;18.972;2023-07-24T18:26:57;59759.59;;;-145.46;90.36
76478;BME280;65309;49.790;18.972;2023-07-24T18:31:59;59753.28;;;-145.46;90.39
76478;BME280;65309;49.790;18.972;2023-07-24T18:37:03;59776.41;;;-145.46;90.61
76478;BME280;65309;49.790;18.972;2023-07-24T18:42:05;59740.69;;;-145.46;89.91
76478;BME280;65309;49.790;18.972;2023-07-24T18:47:09;59797.44;;;-145.46;89.84
76478;BME280;65309;49.790;18.972;2023-07-24T18:52:12;59772.22;;;-145.46;90.20
76478;BME280;65309;49.790;18.972;2023-07-24T18:57:14;59780.63;;;-145.46;90.67
76478;BME280;65309;49.790;18.972;2023-07-24T19:02:16;59822.66;;;-145.46;91.67
76478;BME280;65309;49.790;18.972;2023-07-24T19:07:20;59801.63;;;-145.46;91.67
76478;BME280;65309;49.790;18.972;2023-07-24T19:12:22;59818.44;;;-145.46;88.94
76478;BME280;65309;49.790;18.972;2023-07-24T19:17:24;59856.28;;;-145.46;86.10
76478;BME280;65309;49.790;18.972;2023-07-24T19:22:27;59837.38;;;-145.46;87.66
76478;BME280;65309;49.790;18.972;2023-07-24T19:27:29;59854.19;;;-145.46;88.10
76478;BME280;65309;49.790;18.972;2023-07-24T19:32:31;59828.97;;;-145.46;88.00
76478;BME280;65309;49.790;18.972;2023-07-24T19:37:35;59803.75;;;-145.46;88.23
76478;BME280;65309;49.790;18.972;2023-07-24T19:42:37;59774.31;;;-145.46;88.31
76478;BME280;65309;49.790;18.972;2023-07-24T19:47:39;59765.91;;;-145.46;88.03
76478;BME280;65309;49.790;18.972;2023-07-24T19:52:43;59776.41;;;-145.46;86.93
76478;BME280;65309;49.790;18.972;2023-07-24T19:57:49;59812.16;;;-145.46;86.00
76478;BME280;65309;49.790;18.972;2023-07-24T20:02:52;59755.38;;;-145.46;86.52
76478;BME280;65309;49.790;18.972;2023-07-24T20:07:56;59799.53;;;-145.46;86.48
76478;BME280;65309;49.790;18.972;2023-07-24T20:12:58;59751.19;;;-145.46;84.23
76478;BME280;65309;49.790;18.972;2023-07-24T20:18:00;59818.44;;;-145.46;84.19
76478;BME280;65309;49.790;18.972;2023-07-24T20:23:03;59810.03;;;-145.46;82.50
76478;BME280;65309;49.790;18.972;2023-07-24T20:28:06;59774.31;;;-145.46;82.57
76478;BME280;65309;49.790;18.972;2023-07-24T20:33:08;59793.22;;;-145.46;84.75
76478;BME280;65309;49.790;18.972;2023-07-24T20:38:22;59763.78;;;-145.46;85.55
76478;BME280;65309;49.790;18.972;2023-07-24T20:43:24;59784.81;;;-145.46;86.49
76478;BME280;65309;49.790;18.972;2023-07-24T20:48:26;59776.41;;;-145.46;86.99
76478;BME280;65309;49.790;18.972;2023-07-24T20:53:31;59776.41;;;-145.46;84.22
76478;BME280;65309;49.790;18.972;2023-07-24T20:58:33;59789.03;;;-145.46;82.15
76478;BME280;65309;49.790;18.972;2023-07-24T21:03:35;59784.81;;;-145.46;77.44
76478;BME280;65309;49.790;18.972;2023-07-24T21:08:39;59753.28;;;-145.46;75.82
76478;BME280;65309;49.790;18.972;2023-07-24T21:13:41;59761.69;;;-145.46;75.19
76478;BME280;65309;49.790;18.972;2023-07-24T21:18:43;59730.16;;;-145.46;73.23
76478;BME280;65309;49.790;18.972;2023-07-24T21:23:46;59761.69;;;-145.46;73.24
76478;BME280;65309;49.790;18.972;2023-07-24T21:28:48;59782.72;;;-145.46;73.48
76478;BME280;65309;49.790;18.972;2023-07-24T21:33:50;59751.19;;;-145.46;72.62
76478;BME280;65309;49.790;18.972;2023-07-24T21:38:54;59753.28;;;-145.46;73.51
76478;BME280;65309;49.790;18.972;2023-07-24T21:43:56;59770.09;;;-145.46;74.07
76478;BME280;65309;49.790;18.972;2023-07-24T21:48:58;59759.59;;;-145.46;74.02
76478;BME280;65309;49.790;18.972;2023-07-24T21:54:01;59759.59;;;-145.46;72.27
76478;BME280;65309;49.790;18.972;2023-07-24T21:59:03;59759.59;;;-145.46;72.75
76478;BME280;65309;49.790;18.972;2023-07-24T22:04:05;59763.78;;;-145.46;71.60
76478;BME280;65309;49.790;18.972;2023-07-24T22:09:09;59763.78;;;-145.46;70.71
76478;BME280;65309;49.790;18.972;2023-07-24T22:14:39;59776.41;;;-145.46;73.15
76478;BME280;65309;49.790;18.972;2023-07-24T22:19:41;59755.38;;;-145.46;69.48
76478;BME280;65309;49.790;18.972;2023-07-24T22:38:43;59759.59;;;-145.46;68.06
76478;BME280;65309;49.790;18.972;2023-07-24T22:43:45;59763.78;;;-145.46;69.44
76478;BME280;65309;49.790;18.972;2023-07-24T22:48:47;59776.41;;;-145.46;70.19
76478;BME280;65309;49.790;18.972;2023-07-24T22:53:51;59753.28;;;-145.46;69.34
76478;BME280;65309;49.790;18.972;2023-07-24T22:59:19;59719.66;;;-145.46;67.22
76478;BME280;65309;49.790;18.972;2023-07-24T23:04:22;59763.78;;;-145.46;64.50
76478;BME280;65309;49.790;18.972;2023-07-24T23:09:27;59755.38;;;-145.46;65.39
76478;BME280;65309;49.790;18.972;2023-07-24T23:14:29;59793.22;;;-145.46;63.98
76478;BME280;65309;49.790;18.972;2023-07-24T23:19:31;59759.59;;;-145.46;62.86
76478;BME280;65309;49.790;18.972;2023-07-24T23:24:35;59723.84;;;-145.46;62.13
76478;BME280;65309;49.790;18.972;2023-07-24T23:29:37;59784.81;;;-145.46;60.54
76478;BME280;65309;49.790;18.972;2023-07-24T23:34:39;59721.75;;;-145.46;55.90
76478;BME280;65309;49.790;18.972;2023-07-24T23:39:42;59751.19;;;-145.46;55.55
76478;BME280;65309;49.790;18.972;2023-07-24T23:44:44;59740.69;;;-145.46;56.85
76478;BME280;65309;49.790;18.972;2023-07-24T23:49:46;59717.56;;;-145.46;54.27
76478;BME280;65309;49.790;18.972;2023-07-24T23:54:52;59730.16;;;-145.46;53.56
76478;BME280;65309;49.790;18.972;2023-07-24T23:59:54;59732.28;;;-145.46;57.99
